sensor_id;sensor_type;location;lat;lon;timestamp;temperature;humidity
18446;DHT22;9352;50.888;4.466;2023-03-01T00:00:17;0.60;99.90
18446;DHT22;9352;50.888;4.466;2023-03-01T00:02:44;0.60;99.90
18446;DHT22;9352;50.888;4.466;2023-03-01T00:05:11;0.50;99.90
18446;DHT22;9352;50.888;4.466;2023-03-01T00:07:38;0.50;99.90
18446;DHT22;9352;50.888;4.466;2023-03-01T00:10:06;0.50;99.90
18446;DHT22;9352;50.888;4.466;2023-03-01T00:12:32;0.50;99.90
18446;DHT22;9352;50.888;4.466;2023-03-01T00:15:01;0.50;99.90
18446;DHT22;9352;50.888;4.466;2023-03-01T00:17:30;0.50;99.90
18446;DHT22;9352;50.888;4.466;2023-03-01T00:19:57;0.40;99.90
18446;DHT22;9352;50.888;4.466;2023-03-01T00:22:24;0.40;99.90
18446;DHT22;9352;50.888;4.466;2023-03-01T00:24:50;0.40;99.90
18446;DHT22;9352;50.888;4.466;2023-03-01T00:27:17;0.40;99.90
18446;DHT22;9352;50.888;4.466;2023-03-01T00:29:44;0.40;99.90
18446;DHT22;9352;50.888;4.466;2023-03-01T00:32:12;0.40;99.90
18446;DHT22;9352;50.888;4.466;2023-03-01T00:34:39;0.40;99.90
18446;DHT22;9352;50.888;4.466;2023-03-01T00:37:06;0.40;99.90
18446;DHT22;9352;50.888;4.466;2023-03-01T00:39:33;0.40;99.90
18446;DHT22;9352;50.888;4.466;2023-03-01T00:42:00;0.40;99.90
18446;DHT22;9352;50.888;4.466;2023-03-01T00:44:27;0.30;99.90
18446;DHT22;9352;50.888;4.466;2023-03-01T00:46:54;0.30;99.90
18446;DHT22;9352;50.888;4.466;2023-03-01T00:49:22;0.30;99.90
18446;DHT22;9352;50.888;4.466;2023-03-01T00:51:53;0.30;99.90
18446;DHT22;9352;50.888;4.466;2023-03-01T00:54:20;0.30;99.90
18446;DHT22;9352;50.888;4.466;2023-03-01T00:56:47;0.20;99.90
18446;DHT22;9352;50.888;4.466;2023-03-01T00:59:14;0.20;99.90
18446;DHT22;9352;50.888;4.466;2023-03-01T01:01:41;0.20;99.90
18446;DHT22;9352;50.888;4.466;2023-03-01T01:04:09;0.20;99.90
18446;DHT22;9352;50.888;4.466;2023-03-01T01:06:39;0.20;99.90
18446;DHT22;9352;50.888;4.466;2023-03-01T01:09:10;0.20;99.90
18446;DHT22;9352;50.888;4.466;2023-03-01T01:11:42;0.10;99.90
18446;DHT22;9352;50.888;4.466;2023-03-01T01:14:09;0.10;99.90
18446;DHT22;9352;50.888;4.466;2023-03-01T01:16:36;0.10;99.90
18446;DHT22;9352;50.888;4.466;2023-03-01T01:19:03;0.10;99.90
18446;DHT22;9352;50.888;4.466;2023-03-01T01:21:31;0.10;99.90
18446;DHT22;9352;50.888;4.466;2023-03-01T01:23:59;0.10;99.90
18446;DHT22;9352;50.888;4.466;2023-03-01T01:26:29;0.00;99.90
18446;DHT22;9352;50.888;4.466;2023-03-01T01:28:56;0.10;99.90
18446;DHT22;9352;50.888;4.466;2023-03-01T01:31:24;0.00;99.90
18446;DHT22;9352;50.888;4.466;2023-03-01T01:33:51;0.00;99.90
18446;DHT22;9352;50.888;4.466;2023-03-01T01:36:19;0.00;99.90
18446;DHT22;9352;50.888;4.466;2023-03-01T01:38:45;0.00;99.90
18446;DHT22;9352;50.888;4.466;2023-03-01T01:41:16;0.00;99.90
18446;DHT22;9352;50.888;4.466;2023-03-01T01:43:45;0.00;99.90
18446;DHT22;9352;50.888;4.466;2023-03-01T01:46:20;0.00;99.90
18446;DHT22;9352;50.888;4.466;2023-03-01T01:48:50;0.00;99.90
18446;DHT22;9352;50.888;4.466;2023-03-01T01:51:21;0.00;99.90
18446;DHT22;9352;50.888;4.466;2023-03-01T01:53:53;0.00;99.90
18446;DHT22;9352;50.888;4.466;2023-03-01T01:56:24;0.00;99.90
18446;DHT22;9352;50.888;4.466;2023-03-01T01:58:52;-0.10;99.90
18446;DHT22;9352;50.888;4.466;2023-03-01T02:01:20;-0.10;99.90
18446;DHT22;9352;50.888;4.466;2023-03-01T02:03:47;-0.10;99.90
18446;DHT22;9352;50.888;4.466;2023-03-01T02:06:19;-0.10;99.90
18446;DHT22;9352;50.888;4.466;2023-03-01T02:08:49;-0.10;99.90
18446;DHT22;9352;50.888;4.466;2023-03-01T02:11:18;-0.10;99.90
18446;DHT22;9352;50.888;4.466;2023-03-01T02:13:48;-0.10;99.90
18446;DHT22;9352;50.888;4.466;2023-03-01T02:16:16;-0.10;99.90
18446;DHT22;9352;50.888;4.466;2023-03-01T02:18:44;-0.10;99.90
18446;DHT22;9352;50.888;4.466;2023-03-01T02:21:28;-0.10;99.90
18446;DHT22;9352;50.888;4.466;2023-03-01T02:23:58;-0.20;99.90
18446;DHT22;9352;50.888;4.466;2023-03-01T02:26:31;-0.20;99.90
18446;DHT22;9352;50.888;4.466;2023-03-01T02:29:03;-0.20;99.90
18446;DHT22;9352;50.888;4.466;2023-03-01T02:31:31;-0.20;99.90
18446;DHT22;9352;50.888;4.466;2023-03-01T02:34:13;-0.30;99.90
18446;DHT22;9352;50.888;4.466;2023-03-01T02:36:43;-0.30;99.90
18446;DHT22;9352;50.888;4.466;2023-03-01T02:39:15;-0.30;99.90
18446;DHT22;9352;50.888;4.466;2023-03-01T02:41:47;-0.30;99.90
18446;DHT22;9352;50.888;4.466;2023-03-01T02:44:16;-0.40;99.90
18446;DHT22;9352;50.888;4.466;2023-03-01T02:46:44;-0.40;99.90
18446;DHT22;9352;50.888;4.466;2023-03-01T02:49:24;-0.50;99.90
18446;DHT22;9352;50.888;4.466;2023-03-01T02:55:00;-0.50;99.90
18446;DHT22;9352;50.888;4.466;2023-03-01T02:57:28;-0.50;99.90
18446;DHT22;9352;50.888;4.466;2023-03-01T03:00:01;-0.50;99.90
18446;DHT22;9352;50.888;4.466;2023-03-01T03:02:33;-0.50;99.90
18446;DHT22;9352;50.888;4.466;2023-03-01T03:05:05;-0.60;99.90
18446;DHT22;9352;50.888;4.466;2023-03-01T03:07:34;-0.60;99.90
18446;DHT22;9352;50.888;4.466;2023-03-01T03:10:03;-0.60;99.90
18446;DHT22;9352;50.888;4.466;2023-03-01T03:12:30;-0.60;99.90
18446;DHT22;9352;50.888;4.466;2023-03-01T03:14:58;-0.60;99.90
18446;DHT22;9352;50.888;4.466;2023-03-01T03:17:25;-0.60;99.90
18446;DHT22;9352;50.888;4.466;2023-03-01T03:19:52;-0.60;99.90
18446;DHT22;9352;50.888;4.466;2023-03-01T03:22:19;-0.60;99.90
18446;DHT22;9352;50.888;4.466;2023-03-01T03:24:46;-0.60;99.90
18446;DHT22;9352;50.888;4.466;2023-03-01T03:27:13;-0.60;99.90
18446;DHT22;9352;50.888;4.466;2023-03-01T03:29:40;-0.60;99.90
18446;DHT22;9352;50.888;4.466;2023-03-01T03:32:08;-0.60;99.90
18446;DHT22;9352;50.888;4.466;2023-03-01T03:34:35;-0.60;99.90
18446;DHT22;9352;50.888;4.466;2023-03-01T03:37:01;-0.60;99.90
18446;DHT22;9352;50.888;4.466;2023-03-01T03:39:28;-0.60;99.90
18446;DHT22;9352;50.888;4.466;2023-03-01T03:42:00;-0.60;99.90
18446;DHT22;9352;50.888;4.466;2023-03-01T03:44:28;-0.60;99.90
18446;DHT22;9352;50.888;4.466;2023-03-01T03:46:54;-0.60;99.90
18446;DHT22;9352;50.888;4.466;2023-03-01T03:49:23;-0.60;99.90
18446;DHT22;9352;50.888;4.466;2023-03-01T03:51:50;-0.60;99.90
18446;DHT22;9352;50.888;4.466;2023-03-01T03:54:16;-0.60;99.90
18446;DHT22;9352;50.888;4.466;2023-03-01T03:56:43;-0.60;99.90
18446;DHT22;9352;50.888;4.466;2023-03-01T03:59:10;-0.70;99.90
18446;DHT22;9352;50.888;4.466;2023-03-01T04:01:37;-0.70;99.90
18446;DHT22;9352;50.888;4.466;2023-03-01T04:04:04;-0.60;99.90
18446;DHT22;9352;50.888;4.466;2023-03-01T04:06:34;-0.60;99.90
18446;DHT22;9352;50.888;4.466;2023-03-01T04:09:01;-0.70;99.90
18446;DHT22;9352;50.888;4.466;2023-03-01T04:11:28;-0.60;99.90
18446;DHT22;9352;50.888;4.466;2023-03-01T04:13:57;-0.70;99.90
18446;DHT22;9352;50.888;4.466;2023-03-01T04:16:24;-0.70;99.90
18446;DHT22;9352;50.888;4.466;2023-03-01T04:18:51;-0.70;99.90
18446;DHT22;9352;50.888;4.466;2023-03-01T04:21:20;-0.70;99.90
18446;DHT22;9352;50.888;4.466;2023-03-01T04:23:48;-0.70;99.90
18446;DHT22;9352;50.888;4.466;2023-03-01T04:26:18;-0.70;99.90
18446;DHT22;9352;50.888;4.466;2023-03-01T04:28:45;-0.70;99.90
18446;DHT22;9352;50.888;4.466;2023-03-01T04:31:15;-0.80;99.90
18446;DHT22;9352;50.888;4.466;2023-03-01T04:33:45;-0.80;99.90
18446;DHT22;9352;50.888;4.466;2023-03-01T04:36:13;-0.70;99.90
18446;DHT22;9352;50.888;4.466;2023-03-01T04:38:41;-0.70;99.90
18446;DHT22;9352;50.888;4.466;2023-03-01T04:41:15;-0.80;99.90
18446;DHT22;9352;50.888;4.466;2023-03-01T04:43:42;-0.80;99.90
18446;DHT22;9352;50.888;4.466;2023-03-01T04:46:11;-0.80;99.90
18446;DHT22;9352;50.888;4.466;2023-03-01T04:48:39;-0.90;99.90
18446;DHT22;9352;50.888;4.466;2023-03-01T04:51:07;-0.90;99.90
18446;DHT22;9352;50.888;4.466;2023-03-01T04:53:35;-0.90;99.90
18446;DHT22;9352;50.888;4.466;2023-03-01T04:56:02;-0.90;99.90
18446;DHT22;9352;50.888;4.466;2023-03-01T04:58:31;-1.00;99.90
18446;DHT22;9352;50.888;4.466;2023-03-01T05:00:58;-1.00;99.90
18446;DHT22;9352;50.888;4.466;2023-03-01T05:03:25;-1.00;99.90
18446;DHT22;9352;50.888;4.466;2023-03-01T05:05:53;-1.00;99.90
18446;DHT22;9352;50.888;4.466;2023-03-01T05:08:20;-1.00;99.90
18446;DHT22;9352;50.888;4.466;2023-03-01T05:10:50;-1.10;99.90
18446;DHT22;9352;50.888;4.466;2023-03-01T05:13:18;-1.10;99.90
18446;DHT22;9352;50.888;4.466;2023-03-01T05:15:53;-1.10;99.90
18446;DHT22;9352;50.888;4.466;2023-03-01T05:18:20;-1.10;99.90
18446;DHT22;9352;50.888;4.466;2023-03-01T05:20:51;-1.10;99.90
18446;DHT22;9352;50.888;4.466;2023-03-01T05:23:18;-1.10;99.90
18446;DHT22;9352;50.888;4.466;2023-03-01T05:25:45;-1.20;99.90
18446;DHT22;9352;50.888;4.466;2023-03-01T05:28:12;-1.20;99.90
18446;DHT22;9352;50.888;4.466;2023-03-01T05:30:39;-1.20;99.90
18446;DHT22;9352;50.888;4.466;2023-03-01T05:33:08;-1.20;99.90
18446;DHT22;9352;50.888;4.466;2023-03-01T05:35:39;-1.20;99.90
18446;DHT22;9352;50.888;4.466;2023-03-01T05:38:07;-1.20;99.90
18446;DHT22;9352;50.888;4.466;2023-03-01T05:40:34;-1.30;99.90
18446;DHT22;9352;50.888;4.466;2023-03-01T05:43:01;-1.30;99.90
18446;DHT22;9352;50.888;4.466;2023-03-01T05:45:31;-1.30;99.90
18446;DHT22;9352;50.888;4.466;2023-03-01T05:47:59;-1.30;99.90
18446;DHT22;9352;50.888;4.466;2023-03-01T05:50:28;-1.30;99.90
18446;DHT22;9352;50.888;4.466;2023-03-01T05:52:58;-1.30;99.90
18446;DHT22;9352;50.888;4.466;2023-03-01T05:55:25;-1.30;99.90
18446;DHT22;9352;50.888;4.466;2023-03-01T05:57:52;-1.30;99.90
18446;DHT22;9352;50.888;4.466;2023-03-01T06:00:20;-1.30;99.90
18446;DHT22;9352;50.888;4.466;2023-03-01T06:02:48;-1.30;99.90
18446;DHT22;9352;50.888;4.466;2023-03-01T06:05:15;-1.30;99.90
18446;DHT22;9352;50.888;4.466;2023-03-01T06:07:44;-1.30;99.90
18446;DHT22;9352;50.888;4.466;2023-03-01T06:10:12;-1.30;99.90
18446;DHT22;9352;50.888;4.466;2023-03-01T06:12:40;-1.30;99.90
18446;DHT22;9352;50.888;4.466;2023-03-01T06:15:09;-1.30;99.90
18446;DHT22;9352;50.888;4.466;2023-03-01T06:17:37;-1.30;99.90
18446;DHT22;9352;50.888;4.466;2023-03-01T06:20:08;-1.30;99.90
18446;DHT22;9352;50.888;4.466;2023-03-01T06:22:35;-1.30;99.90
18446;DHT22;9352;50.888;4.466;2023-03-01T06:25:04;-0.90;99.90
18446;DHT22;9352;50.888;4.466;2023-03-01T06:27:32;-0.90;99.90
18446;DHT22;9352;50.888;4.466;2023-03-01T06:29:58;-1.00;99.90
18446;DHT22;9352;50.888;4.466;2023-03-01T06:32:25;-1.00;99.90
18446;DHT22;9352;50.888;4.466;2023-03-01T06:34:52;-1.10;99.90
18446;DHT22;9352;50.888;4.466;2023-03-01T06:37:19;-1.10;99.90
18446;DHT22;9352;50.888;4.466;2023-03-01T06:39:46;-1.20;99.90
18446;DHT22;9352;50.888;4.466;2023-03-01T06:42:14;-1.20;99.90
18446;DHT22;9352;50.888;4.466;2023-03-01T06:44:42;-1.20;99.90
18446;DHT22;9352;50.888;4.466;2023-03-01T06:47:09;-1.10;99.90
18446;DHT22;9352;50.888;4.466;2023-03-01T06:49:36;-1.10;99.90
18446;DHT22;9352;50.888;4.466;2023-03-01T06:52:03;-1.10;99.90
18446;DHT22;9352;50.888;4.466;2023-03-01T06:54:29;-1.10;99.90
18446;DHT22;9352;50.888;4.466;2023-03-01T06:56:56;-1.00;99.90
18446;DHT22;9352;50.888;4.466;2023-03-01T06:59:25;-0.90;99.90
18446;DHT22;9352;50.888;4.466;2023-03-01T07:01:51;-0.80;99.90
18446;DHT22;9352;50.888;4.466;2023-03-01T07:04:18;-0.70;99.90
18446;DHT22;9352;50.888;4.466;2023-03-01T07:06:45;-0.60;99.90
18446;DHT22;9352;50.888;4.466;2023-03-01T07:09:19;-0.50;99.90
18446;DHT22;9352;50.888;4.466;2023-03-01T07:11:47;-0.40;99.90
18446;DHT22;9352;50.888;4.466;2023-03-01T07:14:14;-0.40;99.90
18446;DHT22;9352;50.888;4.466;2023-03-01T07:16:42;-0.30;99.90
18446;DHT22;9352;50.888;4.466;2023-03-01T07:19:09;-0.30;99.90
18446;DHT22;9352;50.888;4.466;2023-03-01T07:21:36;-0.20;99.90
18446;DHT22;9352;50.888;4.466;2023-03-01T07:24:05;-0.10;99.90
18446;DHT22;9352;50.888;4.466;2023-03-01T07:26:32;-0.10;99.90
18446;DHT22;9352;50.888;4.466;2023-03-01T07:28:59;-0.10;99.90
18446;DHT22;9352;50.888;4.466;2023-03-01T07:31:26;0.00;99.90
18446;DHT22;9352;50.888;4.466;2023-03-01T07:33:55;-0.10;99.90
18446;DHT22;9352;50.888;4.466;2023-03-01T07:36:23;0.00;99.90
18446;DHT22;9352;50.888;4.466;2023-03-01T07:38:50;0.00;99.90
18446;DHT22;9352;50.888;4.466;2023-03-01T07:41:18;0.00;99.90
18446;DHT22;9352;50.888;4.466;2023-03-01T07:43:44;0.10;99.90
18446;DHT22;9352;50.888;4.466;2023-03-01T07:46:11;0.10;99.90
18446;DHT22;9352;50.888;4.466;2023-03-01T07:48:38;0.10;99.90
18446;DHT22;9352;50.888;4.466;2023-03-01T07:51:07;0.20;99.90
18446;DHT22;9352;50.888;4.466;2023-03-01T07:53:34;0.30;99.90
18446;DHT22;9352;50.888;4.466;2023-03-01T07:56:03;0.30;99.90
18446;DHT22;9352;50.888;4.466;2023-03-01T07:58:30;0.40;99.90
18446;DHT22;9352;50.888;4.466;2023-03-01T08:01:01;0.50;99.90
18446;DHT22;9352;50.888;4.466;2023-03-01T08:03:28;0.60;99.90
18446;DHT22;9352;50.888;4.466;2023-03-01T08:05:55;0.60;99.90
18446;DHT22;9352;50.888;4.466;2023-03-01T08:08:23;0.70;99.90
18446;DHT22;9352;50.888;4.466;2023-03-01T08:10:50;0.80;99.90
18446;DHT22;9352;50.888;4.466;2023-03-01T08:13:17;0.90;99.90
18446;DHT22;9352;50.888;4.466;2023-03-01T08:15:47;1.00;99.90
18446;DHT22;9352;50.888;4.466;2023-03-01T08:18:14;1.10;99.90
18446;DHT22;9352;50.888;4.466;2023-03-01T08:20:41;1.30;99.90
18446;DHT22;9352;50.888;4.466;2023-03-01T08:23:08;1.40;99.90
18446;DHT22;9352;50.888;4.466;2023-03-01T08:25:37;1.50;99.90
18446;DHT22;9352;50.888;4.466;2023-03-01T08:28:04;1.60;99.90
18446;DHT22;9352;50.888;4.466;2023-03-01T08:30:32;1.60;99.90
18446;DHT22;9352;50.888;4.466;2023-03-01T08:32:59;1.70;99.90
18446;DHT22;9352;50.888;4.466;2023-03-01T08:35:26;2.00;99.90
18446;DHT22;9352;50.888;4.466;2023-03-01T08:37:53;2.50;99.90
18446;DHT22;9352;50.888;4.466;2023-03-01T08:40:20;3.00;99.90
18446;DHT22;9352;50.888;4.466;2023-03-01T08:42:48;3.60;99.90
18446;DHT22;9352;50.888;4.466;2023-03-01T08:45:15;4.00;99.90
18446;DHT22;9352;50.888;4.466;2023-03-01T08:47:43;4.30;99.90
18446;DHT22;9352;50.888;4.466;2023-03-01T08:50:11;4.60;99.90
18446;DHT22;9352;50.888;4.466;2023-03-01T08:52:37;5.00;99.90
18446;DHT22;9352;50.888;4.466;2023-03-01T08:55:05;5.40;99.90
18446;DHT22;9352;50.888;4.466;2023-03-01T08:57:33;5.60;99.90
18446;DHT22;9352;50.888;4.466;2023-03-01T09:00:01;6.00;99.90
18446;DHT22;9352;50.888;4.466;2023-03-01T09:02:28;6.10;99.90
18446;DHT22;9352;50.888;4.466;2023-03-01T09:04:55;6.00;99.90
18446;DHT22;9352;50.888;4.466;2023-03-01T09:07:22;6.00;99.90
18446;DHT22;9352;50.888;4.466;2023-03-01T09:09:53;6.20;99.90
18446;DHT22;9352;50.888;4.466;2023-03-01T09:12:20;6.40;99.90
18446;DHT22;9352;50.888;4.466;2023-03-01T09:14:47;6.70;99.90
18446;DHT22;9352;50.888;4.466;2023-03-01T09:17:16;6.70;99.90
18446;DHT22;9352;50.888;4.466;2023-03-01T09:19:42;6.30;99.90
18446;DHT22;9352;50.888;4.466;2023-03-01T09:22:09;6.00;99.90
18446;DHT22;9352;50.888;4.466;2023-03-01T09:24:36;5.50;99.90
18446;DHT22;9352;50.888;4.466;2023-03-01T09:27:03;5.10;99.90
18446;DHT22;9352;50.888;4.466;2023-03-01T09:29:35;4.70;99.90
18446;DHT22;9352;50.888;4.466;2023-03-01T09:32:02;4.70;99.90
18446;DHT22;9352;50.888;4.466;2023-03-01T09:34:31;5.00;99.90
18446;DHT22;9352;50.888;4.466;2023-03-01T09:37:17;4.90;99.90
18446;DHT22;9352;50.888;4.466;2023-03-01T09:39:44;5.10;99.90
18446;DHT22;9352;50.888;4.466;2023-03-01T09:42:12;5.10;99.90
18446;DHT22;9352;50.888;4.466;2023-03-01T09:44:45;5.10;99.90
18446;DHT22;9352;50.888;4.466;2023-03-01T09:47:18;5.20;99.90
18446;DHT22;9352;50.888;4.466;2023-03-01T09:49:53;5.30;99.90
18446;DHT22;9352;50.888;4.466;2023-03-01T09:52:30;5.20;99.90
18446;DHT22;9352;50.888;4.466;2023-03-01T09:55:00;5.10;99.90
18446;DHT22;9352;50.888;4.466;2023-03-01T09:57:32;5.00;99.90
18446;DHT22;9352;50.888;4.466;2023-03-01T10:00:12;4.90;99.90
18446;DHT22;9352;50.888;4.466;2023-03-01T10:02:44;4.80;99.90
18446;DHT22;9352;50.888;4.466;2023-03-01T10:05:25;4.90;99.90
18446;DHT22;9352;50.888;4.466;2023-03-01T10:08:02;4.90;99.90
18446;DHT22;9352;50.888;4.466;2023-03-01T10:10:35;4.80;99.90
18446;DHT22;9352;50.888;4.466;2023-03-01T10:13:09;4.90;99.90
18446;DHT22;9352;50.888;4.466;2023-03-01T10:15:43;5.20;99.90
18446;DHT22;9352;50.888;4.466;2023-03-01T10:18:13;5.40;99.90
18446;DHT22;9352;50.888;4.466;2023-03-01T10:20:48;5.40;99.90
18446;DHT22;9352;50.888;4.466;2023-03-01T10:23:17;5.30;99.90
18446;DHT22;9352;50.888;4.466;2023-03-01T10:25:51;5.40;99.90
18446;DHT22;9352;50.888;4.466;2023-03-01T10:28:28;5.50;99.90
18446;DHT22;9352;50.888;4.466;2023-03-01T10:30:57;5.50;99.90
18446;DHT22;9352;50.888;4.466;2023-03-01T10:33:27;5.60;99.90
18446;DHT22;9352;50.888;4.466;2023-03-01T10:35:57;5.60;99.90
18446;DHT22;9352;50.888;4.466;2023-03-01T10:38:24;5.80;99.90
18446;DHT22;9352;50.888;4.466;2023-03-01T10:40:54;6.00;99.90
18446;DHT22;9352;50.888;4.466;2023-03-01T10:43:23;6.40;99.90
18446;DHT22;9352;50.888;4.466;2023-03-01T10:45:50;6.50;99.90
18446;DHT22;9352;50.888;4.466;2023-03-01T10:48:20;6.50;99.90
18446;DHT22;9352;50.888;4.466;2023-03-01T10:50:51;6.50;99.90
18446;DHT22;9352;50.888;4.466;2023-03-01T10:53:33;6.60;99.90
18446;DHT22;9352;50.888;4.466;2023-03-01T10:56:03;6.70;99.90
18446;DHT22;9352;50.888;4.466;2023-03-01T10:58:31;6.90;99.90
18446;DHT22;9352;50.888;4.466;2023-03-01T11:01:00;7.10;99.90
18446;DHT22;9352;50.888;4.466;2023-03-01T11:03:29;7.20;99.90
18446;DHT22;9352;50.888;4.466;2023-03-01T11:06:02;7.50;99.90
18446;DHT22;9352;50.888;4.466;2023-03-01T11:08:36;7.70;99.90
18446;DHT22;9352;50.888;4.466;2023-03-01T11:11:26;7.70;99.90
18446;DHT22;9352;50.888;4.466;2023-03-01T11:13:58;7.70;99.90
18446;DHT22;9352;50.888;4.466;2023-03-01T11:16:29;7.60;99.90
18446;DHT22;9352;50.888;4.466;2023-03-01T11:18:59;7.80;99.90
18446;DHT22;9352;50.888;4.466;2023-03-01T11:21:28;7.90;99.90
18446;DHT22;9352;50.888;4.466;2023-03-01T11:23:58;8.00;99.90
18446;DHT22;9352;50.888;4.466;2023-03-01T11:26:28;8.30;99.90
18446;DHT22;9352;50.888;4.466;2023-03-01T11:28:58;8.30;99.90
18446;DHT22;9352;50.888;4.466;2023-03-01T11:31:27;8.40;99.90
18446;DHT22;9352;50.888;4.466;2023-03-01T11:33:59;8.60;99.90
18446;DHT22;9352;50.888;4.466;2023-03-01T11:36:31;8.80;99.90
18446;DHT22;9352;50.888;4.466;2023-03-01T11:39:05;8.90;99.90
18446;DHT22;9352;50.888;4.466;2023-03-01T11:41:39;9.10;99.90
18446;DHT22;9352;50.888;4.466;2023-03-01T11:44:13;9.20;99.90
18446;DHT22;9352;50.888;4.466;2023-03-01T11:46:49;9.60;99.90
18446;DHT22;9352;50.888;4.466;2023-03-01T11:49:52;10.10;99.90
18446;DHT22;9352;50.888;4.466;2023-03-01T11:52:27;10.80;99.90
18446;DHT22;9352;50.888;4.466;2023-03-01T11:55:12;11.70;99.90
18446;DHT22;9352;50.888;4.466;2023-03-01T11:57:54;12.30;99.90
18446;DHT22;9352;50.888;4.466;2023-03-01T12:00:58;13.10;99.90
18446;DHT22;9352;50.888;4.466;2023-03-01T12:14:37;13.90;99.90
18446;DHT22;9352;50.888;4.466;2023-03-01T12:17:29;14.00;99.10
18446;DHT22;9352;50.888;4.466;2023-03-01T12:20:14;14.00;98.00
18446;DHT22;9352;50.888;4.466;2023-03-01T12:22:51;13.20;99.10
18446;DHT22;9352;50.888;4.466;2023-03-01T12:25:29;12.60;98.30
18446;DHT22;9352;50.888;4.466;2023-03-01T12:28:24;11.70;99.50
18446;DHT22;9352;50.888;4.466;2023-03-01T12:31:17;11.10;99.90
18446;DHT22;9352;50.888;4.466;2023-03-01T12:33:57;10.50;99.90
18446;DHT22;9352;50.888;4.466;2023-03-01T12:36:40;10.10;99.90
18446;DHT22;9352;50.888;4.466;2023-03-01T12:39:24;9.70;99.90
18446;DHT22;9352;50.888;4.466;2023-03-01T12:42:00;9.40;99.90
18446;DHT22;9352;50.888;4.466;2023-03-01T12:44:46;8.90;99.90
18446;DHT22;9352;50.888;4.466;2023-03-01T12:47:26;8.90;99.90
18446;DHT22;9352;50.888;4.466;2023-03-01T12:49:57;8.60;99.90
18446;DHT22;9352;50.888;4.466;2023-03-01T12:52:32;8.50;99.90
18446;DHT22;9352;50.888;4.466;2023-03-01T12:55:08;8.40;99.90
18446;DHT22;9352;50.888;4.466;2023-03-01T12:57:39;8.30;99.90
18446;DHT22;9352;50.888;4.466;2023-03-01T13:00:22;8.20;99.90
18446;DHT22;9352;50.888;4.466;2023-03-01T13:02:58;8.10;99.90
18446;DHT22;9352;50.888;4.466;2023-03-01T13:05:37;8.10;99.90
18446;DHT22;9352;50.888;4.466;2023-03-01T13:08:12;8.10;99.90
18446;DHT22;9352;50.888;4.466;2023-03-01T13:10:46;8.10;99.90
18446;DHT22;9352;50.888;4.466;2023-03-01T13:13:20;8.00;99.90
18446;DHT22;9352;50.888;4.466;2023-03-01T13:15:49;7.90;99.90
18446;DHT22;9352;50.888;4.466;2023-03-01T13:18:32;7.90;99.90
18446;DHT22;9352;50.888;4.466;2023-03-01T13:21:03;7.90;99.90
18446;DHT22;9352;50.888;4.466;2023-03-01T13:23:34;7.90;99.90
18446;DHT22;9352;50.888;4.466;2023-03-01T13:26:04;8.00;99.90
18446;DHT22;9352;50.888;4.466;2023-03-01T13:28:50;7.90;99.90
18446;DHT22;9352;50.888;4.466;2023-03-01T13:34:53;8.00;99.90
18446;DHT22;9352;50.888;4.466;2023-03-01T13:37:26;7.90;99.90
18446;DHT22;9352;50.888;4.466;2023-03-01T13:40:04;8.00;99.90
18446;DHT22;9352;50.888;4.466;2023-03-01T13:42:35;7.90;99.90
18446;DHT22;9352;50.888;4.466;2023-03-01T13:45:05;7.90;99.90
18446;DHT22;9352;50.888;4.466;2023-03-01T13:47:42;8.00;99.90
18446;DHT22;9352;50.888;4.466;2023-03-01T13:50:19;8.00;99.90
18446;DHT22;9352;50.888;4.466;2023-03-01T13:52:50;7.90;99.90
18446;DHT22;9352;50.888;4.466;2023-03-01T13:55:20;7.90;99.90
18446;DHT22;9352;50.888;4.466;2023-03-01T13:57:49;7.90;99.90
18446;DHT22;9352;50.888;4.466;2023-03-01T14:00:32;7.90;99.90
18446;DHT22;9352;50.888;4.466;2023-03-01T14:03:11;7.80;99.90
18446;DHT22;9352;50.888;4.466;2023-03-01T14:05:40;7.90;99.90
18446;DHT22;9352;50.888;4.466;2023-03-01T14:08:20;7.90;99.90
18446;DHT22;9352;50.888;4.466;2023-03-01T14:10:56;7.90;99.90
18446;DHT22;9352;50.888;4.466;2023-03-01T14:13:36;7.90;99.90
18446;DHT22;9352;50.888;4.466;2023-03-01T14:16:17;7.90;99.90
18446;DHT22;9352;50.888;4.466;2023-03-01T14:18:55;8.00;99.90
18446;DHT22;9352;50.888;4.466;2023-03-01T14:21:26;8.00;99.90
18446;DHT22;9352;50.888;4.466;2023-03-01T14:23:53;8.00;99.90
18446;DHT22;9352;50.888;4.466;2023-03-01T14:26:21;7.90;99.90
18446;DHT22;9352;50.888;4.466;2023-03-01T14:28:49;7.90;99.90
18446;DHT22;9352;50.888;4.466;2023-03-01T14:31:32;7.90;99.90
18446;DHT22;9352;50.888;4.466;2023-03-01T14:34:00;7.90;99.90
18446;DHT22;9352;50.888;4.466;2023-03-01T14:36:30;7.90;99.90
18446;DHT22;9352;50.888;4.466;2023-03-01T14:38:58;7.90;99.90
18446;DHT22;9352;50.888;4.466;2023-03-01T14:41:32;7.90;99.90
18446;DHT22;9352;50.888;4.466;2023-03-01T14:44:02;7.90;99.90
18446;DHT22;9352;50.888;4.466;2023-03-01T14:46:32;8.00;99.90
18446;DHT22;9352;50.888;4.466;2023-03-01T14:49:02;8.00;99.90
18446;DHT22;9352;50.888;4.466;2023-03-01T14:51:35;8.00;99.90
18446;DHT22;9352;50.888;4.466;2023-03-01T14:54:03;8.00;99.90
18446;DHT22;9352;50.888;4.466;2023-03-01T14:56:43;7.90;99.90
18446;DHT22;9352;50.888;4.466;2023-03-01T14:59:11;7.90;99.90
18446;DHT22;9352;50.888;4.466;2023-03-01T15:01:39;8.00;99.90
18446;DHT22;9352;50.888;4.466;2023-03-01T15:04:07;7.90;99.90
18446;DHT22;9352;50.888;4.466;2023-03-01T15:06:37;7.90;99.90
18446;DHT22;9352;50.888;4.466;2023-03-01T15:09:04;7.90;99.90
18446;DHT22;9352;50.888;4.466;2023-03-01T15:11:33;7.90;99.90
18446;DHT22;9352;50.888;4.466;2023-03-01T15:14:25;7.90;99.90
18446;DHT22;9352;50.888;4.466;2023-03-01T15:16:52;7.90;99.90
18446;DHT22;9352;50.888;4.466;2023-03-01T15:19:20;7.90;99.90
18446;DHT22;9352;50.888;4.466;2023-03-01T15:21:49;8.00;99.90
18446;DHT22;9352;50.888;4.466;2023-03-01T15:24:18;8.00;99.90
18446;DHT22;9352;50.888;4.466;2023-03-01T15:26:51;8.00;99.90
18446;DHT22;9352;50.888;4.466;2023-03-01T15:29:23;7.90;99.90
18446;DHT22;9352;50.888;4.466;2023-03-01T15:31:57;7.90;99.90
18446;DHT22;9352;50.888;4.466;2023-03-01T15:34:25;8.00;99.90
18446;DHT22;9352;50.888;4.466;2023-03-01T15:36:55;8.00;99.90
18446;DHT22;9352;50.888;4.466;2023-03-01T15:39:36;8.20;99.90
18446;DHT22;9352;50.888;4.466;2023-03-01T15:42:10;8.20;99.90
18446;DHT22;9352;50.888;4.466;2023-03-01T15:44:38;8.20;99.90
18446;DHT22;9352;50.888;4.466;2023-03-01T15:47:27;8.20;99.90
18446;DHT22;9352;50.888;4.466;2023-03-01T15:49:57;8.10;99.90
18446;DHT22;9352;50.888;4.466;2023-03-01T15:52:28;8.10;99.90
18446;DHT22;9352;50.888;4.466;2023-03-01T15:54:58;8.10;99.90
18446;DHT22;9352;50.888;4.466;2023-03-01T15:57:26;8.10;99.90
18446;DHT22;9352;50.888;4.466;2023-03-01T15:59:53;8.00;99.90
18446;DHT22;9352;50.888;4.466;2023-03-01T16:02:20;7.90;99.90
18446;DHT22;9352;50.888;4.466;2023-03-01T16:04:47;7.90;99.90
18446;DHT22;9352;50.888;4.466;2023-03-01T16:07:15;7.80;99.90
18446;DHT22;9352;50.888;4.466;2023-03-01T16:09:43;7.70;99.90
18446;DHT22;9352;50.888;4.466;2023-03-01T16:12:13;7.60;99.90
18446;DHT22;9352;50.888;4.466;2023-03-01T16:14:41;7.60;99.90
18446;DHT22;9352;50.888;4.466;2023-03-01T16:17:08;7.50;99.90
18446;DHT22;9352;50.888;4.466;2023-03-01T16:19:35;7.40;99.90
18446;DHT22;9352;50.888;4.466;2023-03-01T16:22:02;7.40;99.90
18446;DHT22;9352;50.888;4.466;2023-03-01T16:24:29;7.40;99.90
18446;DHT22;9352;50.888;4.466;2023-03-01T16:26:58;7.40;99.90
18446;DHT22;9352;50.888;4.466;2023-03-01T16:29:25;7.30;99.90
18446;DHT22;9352;50.888;4.466;2023-03-01T16:31:51;7.30;99.90